China, Texas
Current Conditions -  °F | °C
As of 4:35 AM on Sunday 21 Dec 2014 (Local Time) from KBMT Reporting Station
Haze Haze  
Wind Chill: 37°   Ceiling: Unl
Heat Index: 40°   Visibility: 4mi
Dew Point: 40°   Wind: 5mph
Humidity: 100%   Direction: 360°N
Pressure: 30.13"   Gusts: NA
Location:  30.05°N, 94.34°W
Report Text: KBMT 211035Z AUTO 36004KT 4SM BR CLR 04/04 A3013 RMK AO2 T00440044
Loading
Personal Weather Stations






























Interactive Weather Map New forecast layout! Learn more

10-Day Weather Forecast

Advertisements
Track Severe Weather on mobile